createdAt,value
2019-05-09T00:00:53.492Z,13.47
2019-05-09T00:03:24.140Z,12.10
2019-05-09T00:05:54.275Z,13.53
2019-05-09T00:08:23.834Z,13.43
2019-05-09T00:10:53.598Z,12.97
2019-05-09T00:13:23.740Z,13.17
2019-05-09T00:15:54.162Z,12.53
2019-05-09T00:18:23.882Z,13.97
2019-05-09T00:21:09.002Z,14.17
2019-05-09T00:23:38.510Z,13.30
2019-05-09T00:26:07.981Z,13.60
2019-05-09T00:28:39.643Z,13.00
2019-05-09T00:31:15.826Z,13.53
2019-05-09T00:33:49.798Z,12.90
2019-05-09T00:36:19.329Z,13.10
2019-05-09T00:38:48.819Z,13.53
2019-05-09T00:41:18.351Z,12.87
2019-05-09T00:43:54.401Z,13.93
2019-05-09T00:46:30.241Z,13.90
2019-05-09T00:49:16.336Z,13.47
2019-05-09T00:51:45.804Z,14.47
2019-05-09T00:54:15.280Z,13.43
2019-05-09T00:56:44.747Z,12.80
2019-05-09T00:59:14.338Z,13.33
2019-05-09T01:01:43.847Z,13.53
2019-05-09T01:04:13.797Z,12.53
2019-05-09T01:06:43.533Z,12.73
2019-05-09T01:09:13.757Z,13.13
2019-05-09T01:11:44.097Z,14.13
2019-05-09T01:14:14.292Z,12.93
2019-05-09T01:16:44.131Z,13.10
2019-05-09T01:19:14.234Z,12.10
2019-05-09T01:21:44.005Z,12.80
2019-05-09T01:24:14.023Z,13.27
2019-05-09T01:26:43.716Z,12.93
2019-05-09T01:29:13.916Z,12.70
2019-05-09T01:31:43.739Z,13.27
2019-05-09T01:34:20.501Z,12.40
2019-05-09T01:37:10.249Z,12.70
2019-05-09T01:39:39.730Z,12.27
2019-05-09T01:42:09.302Z,12.50
2019-05-09T01:44:38.800Z,11.97
2019-05-09T01:47:08.296Z,12.77
2019-05-09T01:49:37.742Z,13.53
2019-05-09T01:52:07.248Z,11.77
2019-05-09T01:54:38.610Z,11.93
2019-05-09T01:57:08.089Z,12.70
2019-05-09T01:59:37.547Z,12.33
2019-05-09T02:02:08.797Z,11.60
2019-05-09T02:04:38.615Z,11.87
2019-05-09T02:07:08.066Z,12.10
2019-05-09T02:09:37.554Z,12.10
2019-05-09T02:12:07.022Z,11.73
2019-05-09T02:14:43.809Z,12.93
2019-05-09T02:17:38.358Z,12.30
2019-05-09T02:20:08.436Z,11.83
2019-05-09T02:22:37.905Z,12.20
2019-05-09T02:25:08.059Z,12.40
2019-05-09T02:27:37.495Z,11.83
2019-05-09T02:30:08.070Z,13.53
2019-05-09T02:32:37.511Z,11.87
2019-05-09T02:35:07.895Z,12.60
2019-05-09T02:37:38.996Z,12.70
2019-05-09T02:40:10.514Z,12.10
2019-05-09T02:42:40.311Z,12.37
2019-05-09T02:45:10.471Z,11.67
2019-05-09T02:47:40.379Z,13.00
2019-05-09T02:50:11.249Z,12.17
2019-05-09T02:52:40.741Z,13.43
2019-05-09T02:55:10.801Z,13.40
2019-05-09T02:57:40.586Z,12.93
2019-05-09T03:00:28.884Z,12.47
2019-05-09T03:03:20.175Z,12.77
2019-05-09T03:05:49.843Z,12.33
2019-05-09T03:08:19.600Z,12.60
2019-05-09T03:10:49.443Z,13.13
2019-05-09T03:13:19.412Z,12.93
2019-05-09T03:15:50.970Z,12.50
2019-05-09T03:18:20.454Z,12.40
2019-05-09T03:21:15.280Z,13.33
2019-05-09T03:23:44.789Z,13.63
2019-05-09T03:26:19.343Z,13.20
2019-05-09T03:29:08.835Z,13.97
2019-05-09T03:31:39.649Z,12.57
2019-05-09T03:34:09.773Z,13.10
2019-05-09T03:36:39.418Z,13.10
2019-05-09T03:39:09.214Z,12.90
2019-05-09T03:41:39.509Z,12.53
2019-05-09T03:44:09.114Z,12.67
2019-05-09T03:46:48.832Z,12.80
2019-05-09T03:49:18.377Z,13.30
2019-05-09T03:51:48.242Z,12.33
2019-05-09T03:54:18.478Z,12.50
2019-05-09T03:56:53.115Z,13.57
2019-05-09T03:59:22.590Z,13.00
2019-05-09T04:01:52.048Z,12.77
2019-05-09T04:04:21.528Z,12.47
2019-05-09T04:06:51.018Z,12.93
2019-05-09T04:09:20.510Z,12.77
2019-05-09T04:11:49.969Z,13.90
2019-05-09T04:14:23.373Z,12.70
2019-05-09T04:16:52.845Z,12.70
2019-05-09T04:19:22.331Z,11.87
2019-05-09T04:21:51.793Z,12.57
2019-05-09T04:24:22.080Z,12.23
2019-05-09T04:26:57.618Z,13.67
2019-05-09T04:29:28.552Z,13.17
2019-05-09T04:31:58.205Z,12.97
2019-05-09T04:34:27.721Z,12.00
2019-05-09T04:36:57.746Z,12.73
2019-05-09T04:39:28.285Z,12.40
2019-05-09T04:42:03.733Z,12.37
2019-05-09T04:44:34.724Z,11.53
2019-05-09T04:47:04.216Z,11.60
2019-05-09T04:49:39.649Z,11.40
2019-05-09T04:52:04.929Z,13.90
2019-05-09T04:54:34.375Z,12.40
2019-05-09T04:57:03.829Z,11.17
2019-05-09T04:59:33.322Z,11.90
2019-05-09T05:02:21.845Z,12.80
2019-05-09T05:04:51.357Z,12.43
2019-05-09T05:07:20.832Z,11.93
2019-05-09T05:09:50.287Z,12.30
2019-05-09T05:12:19.784Z,12.60
2019-05-09T05:14:49.255Z,12.77
2019-05-09T05:17:18.735Z,12.60
2019-05-09T05:19:49.009Z,12.27
2019-05-09T05:22:42.788Z,14.37
2019-05-09T05:25:12.276Z,14.57
2019-05-09T05:27:41.761Z,12.80
2019-05-09T05:30:12.089Z,13.00
2019-05-09T05:32:57.850Z,13.73
2019-05-09T05:35:34.137Z,14.00
2019-05-09T05:38:03.654Z,12.93
2019-05-09T05:40:34.022Z,13.97
2019-05-09T05:43:03.613Z,13.90
2019-05-09T05:45:37.608Z,14.00
2019-05-09T05:48:17.380Z,13.53
2019-05-09T05:50:48.523Z,13.63
2019-05-09T05:53:18.269Z,13.47
2019-05-09T05:55:52.076Z,12.90
2019-05-09T05:58:20.356Z,12.30
2019-05-09T06:00:49.873Z,12.30
2019-05-09T06:03:19.400Z,12.47
2019-05-09T06:05:51.700Z,13.10
2019-05-09T06:08:20.071Z,14.13
2019-05-09T06:10:49.579Z,13.37
2019-05-09T06:13:19.058Z,13.50
2019-05-09T06:15:48.570Z,13.43
2019-05-09T06:18:18.532Z,13.23
2019-05-09T06:20:48.652Z,12.93
2019-05-09T06:23:18.327Z,12.87
2019-05-09T06:25:48.505Z,13.07
2019-05-09T06:28:18.425Z,12.73
2019-05-09T06:30:47.934Z,13.40
2019-05-09T06:33:18.049Z,12.73
2019-05-09T06:35:48.213Z,13.97
2019-05-09T06:38:19.001Z,12.00
2019-05-09T06:40:48.497Z,12.80
2019-05-09T06:43:24.261Z,13.20
2019-05-09T06:46:11.722Z,13.27
2019-05-09T06:48:41.241Z,13.33
2019-05-09T06:51:10.698Z,13.93
2019-05-09T06:53:40.228Z,13.43
2019-05-09T06:56:09.715Z,13.77
2019-05-09T06:58:39.211Z,13.70
2019-05-09T07:01:24.754Z,13.63
2019-05-09T07:03:58.331Z,13.80
2019-05-09T07:06:32.427Z,13.77
2019-05-09T07:09:33.294Z,14.00
2019-05-09T07:12:02.876Z,13.30
2019-05-09T07:14:37.902Z,12.30
2019-05-09T07:17:07.923Z,12.10
2019-05-09T07:19:38.247Z,11.33
2019-05-09T07:22:39.457Z,11.83
2019-05-09T07:25:37.864Z,12.77
2019-05-09T07:28:07.774Z,13.13
2019-05-09T07:30:48.102Z,12.83
2019-05-09T07:33:23.790Z,13.53
2019-05-09T07:35:53.359Z,14.40
2019-05-09T07:38:29.707Z,13.87
2019-05-09T07:41:00.124Z,14.33
2019-05-09T07:43:31.842Z,13.10
2019-05-09T07:46:05.749Z,13.57
2019-05-09T07:48:38.062Z,13.77
2019-05-09T07:51:08.060Z,13.63
2019-05-09T07:53:38.187Z,14.30
2019-05-09T07:56:08.194Z,14.90
2019-05-09T07:58:37.933Z,14.80
2019-05-09T08:01:08.464Z,14.97
2019-05-09T08:03:38.711Z,13.63
2019-05-09T08:06:09.001Z,13.37
2019-05-09T08:08:38.822Z,14.00
2019-05-09T08:11:09.193Z,13.17
2019-05-09T08:13:39.490Z,12.87
2019-05-09T08:16:14.181Z,12.90
2019-05-09T08:18:41.955Z,12.83
2019-05-09T08:21:11.485Z,12.60
2019-05-09T08:23:40.945Z,17.37
2019-05-09T08:26:10.486Z,44.30
2019-05-09T08:28:42.105Z,28.60
2019-05-09T08:31:11.688Z,12.00
2019-05-09T08:33:41.236Z,11.87
2019-05-09T08:36:10.836Z,11.83
2019-05-09T08:38:40.658Z,11.43
2019-05-09T08:41:11.352Z,11.53
2019-05-09T08:43:41.862Z,11.10
2019-05-09T08:46:12.762Z,11.53
2019-05-09T08:48:42.348Z,10.50
2019-05-09T08:51:20.141Z,11.17
2019-05-09T08:53:49.967Z,11.97
2019-05-09T08:56:19.510Z,10.10
2019-05-09T08:58:48.979Z,9.67
2019-05-09T09:01:30.742Z,9.90
2019-05-09T09:03:50.160Z,9.43
2019-05-09T09:06:19.744Z,9.93
2019-05-09T09:08:49.225Z,10.23
2019-05-09T09:11:19.122Z,9.53
2019-05-09T09:13:48.963Z,8.83
2019-05-09T09:16:22.279Z,8.30
2019-05-09T09:18:49.707Z,8.67
2019-05-09T09:21:19.262Z,8.13
2019-05-09T09:23:50.732Z,7.33
2019-05-09T09:26:20.000Z,7.27
2019-05-09T09:28:49.501Z,13.80
2019-05-09T09:31:19.026Z,7.70
2019-05-09T09:33:48.505Z,7.23
2019-05-09T09:36:18.149Z,7.90
2019-05-09T09:38:48.508Z,7.20
2019-05-09T09:41:20.584Z,6.93
2019-05-09T09:43:50.115Z,7.13
2019-05-09T09:46:19.643Z,6.57
2019-05-09T09:48:49.197Z,7.27
2019-05-09T09:51:18.917Z,7.77
2019-05-09T09:53:49.086Z,7.90
2019-05-09T09:56:22.283Z,7.63
2019-05-09T09:58:58.876Z,6.90
2019-05-09T10:01:30.517Z,7.00
2019-05-09T10:04:24.036Z,7.30
2019-05-09T10:06:52.987Z,6.67
2019-05-09T10:09:20.999Z,7.10
2019-05-09T10:11:50.573Z,6.53
2019-05-09T10:14:28.411Z,7.53
2019-05-09T10:17:17.947Z,6.80
2019-05-09T10:19:51.979Z,7.60
2019-05-09T10:22:25.447Z,7.07
2019-05-09T10:24:54.425Z,7.83
2019-05-09T10:27:23.953Z,7.27
2019-05-09T10:29:53.466Z,7.10
2019-05-09T10:32:23.019Z,7.53
2019-05-09T10:34:52.566Z,6.23
2019-05-09T10:37:22.079Z,6.47
2019-05-09T10:39:51.545Z,6.90
2019-05-09T10:42:28.705Z,7.60
2019-05-09T10:45:09.132Z,7.70
2019-05-09T10:47:38.676Z,7.50
2019-05-09T10:50:08.735Z,7.50
2019-05-09T10:52:38.279Z,8.17
2019-05-09T10:55:09.048Z,6.80
2019-05-09T10:57:42.417Z,7.63
2019-05-09T11:00:10.426Z,8.00
2019-05-09T11:02:40.169Z,7.40
2019-05-09T11:05:11.219Z,7.47
2019-05-09T11:07:40.760Z,7.90
2019-05-09T11:10:24.548Z,8.03
2019-05-09T11:12:41.591Z,7.20
2019-05-09T11:15:11.177Z,7.10
2019-05-09T11:17:42.062Z,7.73
2019-05-09T11:20:14.539Z,7.77
2019-05-09T11:22:44.039Z,7.63
2019-05-09T11:25:13.559Z,7.70
2019-05-09T11:27:43.073Z,7.60
2019-05-09T11:30:13.636Z,7.37
2019-05-09T11:32:43.150Z,8.67
2019-05-09T11:35:12.660Z,8.37
2019-05-09T11:37:42.185Z,8.60
2019-05-09T11:40:12.268Z,9.27
2019-05-09T11:42:41.742Z,9.20
2019-05-09T11:45:11.338Z,8.60
2019-05-09T11:47:46.217Z,7.97
2019-05-09T11:50:12.281Z,8.13
2019-05-09T11:52:44.699Z,8.30
2019-05-09T11:55:28.801Z,7.73
2019-05-09T11:57:48.346Z,11.43
2019-05-09T12:00:17.930Z,7.90
2019-05-09T12:02:49.860Z,5.10
2019-05-09T12:05:20.220Z,4.27
2019-05-09T12:07:52.634Z,3.97
2019-05-09T12:10:22.122Z,3.77
2019-05-09T12:12:51.617Z,3.50
2019-05-09T12:15:21.131Z,4.40
2019-05-09T12:17:58.480Z,3.23
2019-05-09T12:20:22.549Z,3.40
2019-05-09T12:22:52.126Z,3.33
2019-05-09T12:25:21.655Z,3.03
2019-05-09T12:27:51.223Z,3.07
2019-05-09T12:30:22.355Z,3.40
2019-05-09T12:32:51.897Z,3.67
2019-05-09T12:35:21.385Z,4.60
2019-05-09T12:37:55.139Z,3.57
2019-05-09T12:40:24.624Z,4.17
2019-05-09T12:42:54.715Z,3.80
2019-05-09T12:45:24.293Z,3.80
2019-05-09T12:48:06.302Z,3.40
2019-05-09T12:50:26.063Z,5.37
2019-05-09T12:52:57.495Z,4.97
2019-05-09T12:55:27.606Z,5.90
2019-05-09T12:57:59.487Z,5.33
2019-05-09T13:00:29.256Z,5.10
2019-05-09T13:02:59.467Z,4.50
2019-05-09T13:05:30.092Z,3.47
2019-05-09T13:07:59.960Z,3.70
2019-05-09T13:10:29.691Z,4.00
2019-05-09T13:12:59.522Z,4.93
2019-05-09T13:15:38.429Z,5.30
2019-05-09T13:18:21.385Z,5.23
2019-05-09T13:20:39.163Z,5.07
2019-05-09T13:23:08.948Z,4.93
2019-05-09T13:25:38.618Z,5.30
2019-05-09T13:28:08.417Z,5.30
2019-05-09T13:30:38.107Z,4.80
2019-05-09T13:33:10.793Z,4.73
2019-05-09T13:35:39.563Z,5.20
2019-05-09T13:38:10.107Z,4.83
2019-05-09T13:40:39.622Z,5.50
2019-05-09T13:43:09.128Z,6.00
2019-05-09T13:45:40.664Z,7.77
2019-05-09T13:48:26.444Z,7.83
2019-05-09T13:50:44.803Z,6.90
2019-05-09T13:53:14.419Z,6.33
2019-05-09T13:55:43.897Z,6.73
2019-05-09T13:58:15.471Z,6.50
2019-05-09T14:00:56.707Z,6.00
2019-05-09T14:03:18.074Z,6.10
2019-05-09T14:05:48.476Z,6.37
2019-05-09T14:08:19.266Z,7.83
2019-05-09T14:10:54.901Z,6.60
2019-05-09T14:13:24.347Z,5.90
2019-05-09T14:15:54.277Z,5.87
2019-05-09T14:18:24.574Z,6.23
2019-05-09T14:20:54.073Z,6.10
2019-05-09T14:23:24.046Z,6.07
2019-05-09T14:25:53.559Z,5.20
2019-05-09T14:28:23.919Z,3.60
2019-05-09T14:30:53.411Z,3.63
2019-05-09T14:33:24.950Z,3.20
2019-05-09T14:35:54.444Z,4.10
2019-05-09T14:38:28.408Z,3.83
2019-05-09T14:41:02.241Z,4.40
2019-05-09T14:43:31.749Z,4.30
2019-05-09T14:46:01.287Z,4.67
2019-05-09T14:48:32.739Z,4.50
2019-05-09T14:51:02.270Z,4.53
2019-05-09T14:53:32.177Z,3.90
2019-05-09T14:56:01.719Z,3.70
2019-05-09T14:58:31.235Z,3.77
2019-05-09T15:01:01.029Z,4.13
2019-05-09T15:03:30.582Z,7.17
2019-05-09T15:06:00.126Z,6.93
2019-05-09T15:08:29.604Z,6.80
2019-05-09T15:10:59.455Z,7.00
2019-05-09T15:13:28.918Z,7.00
2019-05-09T15:15:58.448Z,6.47
2019-05-09T15:18:28.304Z,6.90
2019-05-09T15:20:58.775Z,6.17
2019-05-09T15:23:29.324Z,6.57
2019-05-09T15:26:00.036Z,6.47
2019-05-09T15:28:29.909Z,6.70
2019-05-09T15:30:59.751Z,7.60
2019-05-09T15:33:31.668Z,8.20
2019-05-09T15:36:02.279Z,7.70
2019-05-09T15:38:32.078Z,7.07
2019-05-09T15:41:04.427Z,7.47
2019-05-09T15:43:34.446Z,7.37
2019-05-09T15:46:18.694Z,7.83
2019-05-09T15:48:48.287Z,7.83
2019-05-09T15:51:19.737Z,7.33
2019-05-09T15:53:49.567Z,7.70
2019-05-09T15:56:19.023Z,8.00
2019-05-09T15:58:49.148Z,7.60
2019-05-09T16:01:19.638Z,8.23
2019-05-09T16:03:49.430Z,8.23
2019-05-09T16:06:20.627Z,9.30
2019-05-09T16:08:52.570Z,8.57
2019-05-09T16:11:24.666Z,8.13
2019-05-09T16:13:54.582Z,8.20
2019-05-09T16:16:24.265Z,8.50
2019-05-09T16:18:54.160Z,8.53
2019-05-09T16:21:27.614Z,9.90
2019-05-09T16:23:59.232Z,9.07
2019-05-09T16:26:29.187Z,9.27
2019-05-09T16:28:58.878Z,8.13
2019-05-09T16:31:35.095Z,9.07
2019-05-09T16:34:04.583Z,9.03
2019-05-09T16:36:34.081Z,9.93
2019-05-09T16:39:07.443Z,7.90
2019-05-09T16:41:39.197Z,8.30
2019-05-09T16:44:09.555Z,9.00
2019-05-09T16:46:39.134Z,9.60
2019-05-09T16:49:11.774Z,8.37
2019-05-09T16:51:42.511Z,10.40
2019-05-09T16:54:12.404Z,10.37
2019-05-09T16:56:43.102Z,11.40
2019-05-09T16:59:12.581Z,11.30
2019-05-09T17:01:47.661Z,12.90
2019-05-09T17:04:19.204Z,15.47
2019-05-09T17:07:08.405Z,16.43
2019-05-09T17:10:17.736Z,15.13
2019-05-09T17:12:47.844Z,14.80
2019-05-09T17:15:20.715Z,13.23
2019-05-09T17:17:52.575Z,13.07
2019-05-09T17:20:29.289Z,10.87
2019-05-09T17:23:15.013Z,9.80
2019-05-09T17:25:43.585Z,10.33
2019-05-09T17:28:13.098Z,12.03
2019-05-09T17:30:49.022Z,12.60
2019-05-09T17:33:22.413Z,13.10
2019-05-09T17:35:53.552Z,14.50
2019-05-09T17:38:23.322Z,14.73
2019-05-09T17:40:53.865Z,14.83
2019-05-09T17:43:27.793Z,13.83
2019-05-09T17:45:58.409Z,13.40
2019-05-09T17:48:28.863Z,13.23
2019-05-09T17:51:05.308Z,14.13
2019-05-09T17:53:35.137Z,13.83
2019-05-09T17:56:04.974Z,13.87
2019-05-09T17:58:37.833Z,13.63
2019-05-09T18:01:09.933Z,12.37
2019-05-09T18:03:40.415Z,14.73
2019-05-09T18:06:09.949Z,13.23
2019-05-09T18:08:40.730Z,13.43
2019-05-09T18:11:17.452Z,13.20
2019-05-09T18:13:48.113Z,13.20
2019-05-09T18:16:19.027Z,14.10
2019-05-09T18:18:50.248Z,14.37
2019-05-09T18:21:24.444Z,17.20
2019-05-09T18:23:55.529Z,18.63
2019-05-09T18:26:27.502Z,16.77
2019-05-09T18:29:09.276Z,18.47
2019-05-09T18:31:52.275Z,18.90
2019-05-09T18:34:24.836Z,21.67
2019-05-09T18:36:58.763Z,25.27
2019-05-09T18:39:27.928Z,24.57
2019-05-09T18:41:57.839Z,21.37
2019-05-09T18:44:35.090Z,20.10
2019-05-09T18:47:07.804Z,18.63
2019-05-09T18:49:37.984Z,18.83
2019-05-09T18:52:07.473Z,17.57
2019-05-09T18:54:41.231Z,19.87
2019-05-09T18:57:10.822Z,24.17
2019-05-09T18:59:40.330Z,21.60
2019-05-09T19:02:12.378Z,21.87
2019-05-09T19:04:46.335Z,23.07
2019-05-09T19:07:22.299Z,29.13
2019-05-09T19:09:49.404Z,25.27
2019-05-09T19:12:20.920Z,24.33
2019-05-09T19:14:54.249Z,30.03
2019-05-09T19:17:41.630Z,28.73
2019-05-09T19:20:32.932Z,25.97
2019-05-09T19:23:07.700Z,23.00
2019-05-09T19:25:37.167Z,21.57
2019-05-09T19:28:07.006Z,24.40
2019-05-09T19:30:36.502Z,23.83
2019-05-09T19:33:06.654Z,25.00
2019-05-09T19:35:37.444Z,25.97
2019-05-09T19:38:09.031Z,21.97
2019-05-09T19:40:42.871Z,24.70
2019-05-09T19:43:15.180Z,22.07
2019-05-09T19:45:45.100Z,20.97
2019-05-09T19:48:14.589Z,25.23
2019-05-09T19:50:44.830Z,21.87
2019-05-09T19:53:15.457Z,21.23
2019-05-09T19:55:47.934Z,21.37
2019-05-09T19:58:20.537Z,19.53
2019-05-09T20:00:51.820Z,22.50
2019-05-09T20:03:24.165Z,22.33
2019-05-09T20:06:03.056Z,22.13
2019-05-09T20:08:34.392Z,25.00
2019-05-09T20:11:25.961Z,22.93
2019-05-09T20:14:30.569Z,25.67
2019-05-09T20:17:02.266Z,24.43
2019-05-09T20:19:32.191Z,27.40
2019-05-09T20:22:03.734Z,24.27
2019-05-09T20:24:55.146Z,24.53
2019-05-09T20:27:28.347Z,24.10
2019-05-09T20:29:59.748Z,23.33
2019-05-09T20:32:32.348Z,25.10
2019-05-09T20:35:02.230Z,24.10
2019-05-09T20:37:33.639Z,26.20
2019-05-09T20:40:05.374Z,26.70
2019-05-09T20:42:35.094Z,25.83
2019-05-09T20:45:05.445Z,24.67
2019-05-09T20:47:43.954Z,24.00
2019-05-09T20:50:16.691Z,26.67
2019-05-09T20:52:51.022Z,23.43
2019-05-09T20:55:23.964Z,23.40
2019-05-09T20:57:56.035Z,20.60
2019-05-09T21:00:26.374Z,23.77
2019-05-09T21:02:56.075Z,22.77
2019-05-09T21:05:26.099Z,24.30
2019-05-09T21:07:55.869Z,22.20
2019-05-09T21:10:25.535Z,22.30
2019-05-09T21:12:55.547Z,21.97
2019-05-09T21:15:26.113Z,20.90
2019-05-09T21:18:01.410Z,20.80
2019-05-09T21:20:31.078Z,23.20
2019-05-09T21:23:00.807Z,25.20
2019-05-09T21:25:33.247Z,27.03
2019-05-09T21:28:06.331Z,25.40
2019-05-09T21:30:35.979Z,29.07
2019-05-09T21:33:07.874Z,32.60
2019-05-09T21:35:38.617Z,34.70
2019-05-09T21:38:10.522Z,36.17
2019-05-09T21:40:42.079Z,35.03
2019-05-09T21:43:11.603Z,33.63
2019-05-09T21:45:41.139Z,34.13
2019-05-09T21:48:11.063Z,33.93
2019-05-09T21:50:40.865Z,33.27
2019-05-09T21:53:10.372Z,35.10
2019-05-09T21:55:41.140Z,36.80
2019-05-09T21:58:14.057Z,32.03
2019-05-09T22:00:46.458Z,35.13
2019-05-09T22:03:16.031Z,31.83
2019-05-09T22:05:51.626Z,38.10
2019-05-09T22:08:22.863Z,32.13
2019-05-09T22:10:52.629Z,32.13
2019-05-09T22:13:22.111Z,29.70
2019-05-09T22:15:51.636Z,32.20
2019-05-09T22:18:21.105Z,30.13
2019-05-09T22:20:51.140Z,29.73
2019-05-09T22:23:20.597Z,30.83
2019-05-09T22:25:50.992Z,37.27
2019-05-09T22:28:20.533Z,32.03
2019-05-09T22:30:50.095Z,29.53
2019-05-09T22:33:20.053Z,31.50
2019-05-09T22:35:49.552Z,30.13
2019-05-09T22:38:19.016Z,28.97
2019-05-09T22:40:48.487Z,30.23
2019-05-09T22:43:17.984Z,30.60
2019-05-09T22:45:47.450Z,30.67
2019-05-09T22:48:16.919Z,30.70
2019-05-09T22:50:46.385Z,28.93
2019-05-09T22:53:15.836Z,27.17
2019-05-09T22:55:45.396Z,25.60
2019-05-09T22:58:14.891Z,26.33
2019-05-09T23:00:44.456Z,27.17
2019-05-09T23:03:14.403Z,26.70
2019-05-09T23:05:43.891Z,26.47
2019-05-09T23:08:13.522Z,25.40
2019-05-09T23:10:42.989Z,26.77
2019-05-09T23:13:12.463Z,24.90
2019-05-09T23:15:41.947Z,25.77
2019-05-09T23:18:11.426Z,26.50
2019-05-09T23:20:52.729Z,25.67
2019-05-09T23:23:29.917Z,27.67
2019-05-09T23:25:59.483Z,25.83
2019-05-09T23:28:29.017Z,27.37
2019-05-09T23:31:00.774Z,27.77
2019-05-09T23:33:33.303Z,29.20
2019-05-09T23:36:02.772Z,28.03
2019-05-09T23:38:32.258Z,28.77
2019-05-09T23:41:01.716Z,28.53
2019-05-09T23:43:31.183Z,26.87
2019-05-09T23:46:00.706Z,27.53
2019-05-09T23:48:30.173Z,28.23
2019-05-09T23:50:59.622Z,23.97
2019-05-09T23:53:35.853Z,26.67
2019-05-09T23:56:22.961Z,27.63
2019-05-09T23:59:10.130Z,28.20
